Manitowaning, Canada
Current Conditions -  °F | °C
As of 5:00 PM on Monday 22 Dec 2014 (Local Time) from CYZE Reporting Station
Overcast Overcast  
Wind Chill: 23°   Ceiling: 2100
Heat Index: 30°   Visibility: 9mi
Dew Point: 27°   Wind: 7mph
Humidity: 86%   Direction: 110°ESE
Pressure: 30.04"   Gusts: NA
Location:  45.73°N, 81.8°W
Report Text: CYZE 222200Z AUTO 11006KT 9SM OVC021 M01/M03 A3004 RMK SLP181
Loading
Personal Weather Stations






























Interactive Weather Map New forecast layout! Learn more

10-Day Weather Forecast

Advertisements
Track Severe Weather on mobile